KETB

West Bend Municipal Airport

West Bend, Wisconsin, USA
METAR KETB 210515Z AUTO 05014G19KT 5SM +RA BKN006 OVC021 18/18 A2985 RMK AO2
Observed Flight Rules
Aug-21 @ 05:15 UTC (9 hours ago) Instrument Flight Rules
Wind Visibility Clouds Conditions
50° at 14 knots
 Gusting to 19 knots
5 miles
  • Broken at 600' AGL
  • Overcast at 2,100' AGL
  • Heavy Rain
Temperatures Readings
Current 18°C / 64°F
Dewpoint 18°C / 64°F
Humidity 100%
Altimeter 29.85" Hg
Pressure 1011 hPa
Elevation 270
METAR KETB 210515Z AUTO 05014G19KT 5SM +RA BKN006 OVC021 18/18 A2985 RMK AO2
Observed Flight Rules
Aug-21 @ 05:15 UTC
(9 hours ago)
IFR
Wind Visibility
50° at 14 knots
 Gusting to 19 knots
5 miles
Clouds
  • Broken at 600' AGL
  • Overcast at 2,100' AGL
Conditions
  • Heavy Rain
Temperature Dewpoint
18°C / 64°F 18°C / 64°F
Humidity Altimeter Pressure
100% 29.85" Hg 1011 hPa